x

Grays Reef - 40 Nm Southeast Of Savannah, Ga (41008) Wave Buoy

11:50am - Fri 6th Mar 2015 All times are EST. -5 hours from GMT.

  • Sig Wave height 7.2ft
  • Swell Direction
  • Peak Period 7s
  • Average Period 5s
  • Wind
    27mph, 31mph gusts
  • Sea Temp 55°f
  • Air Temp 46°f
  • Sea Pressure 1027.3mb
  • Grays Reef - 40 Nm Southeast Of Savannah, Ga
  • Grays Reef - 40 Nm Southeast Of Savannah, Ga

More Historic Weather Station data

Upgrade to MSW Pro to gain access to the past 30 days of data for over 8000 Wavebouys and Weather Stations around the globe.

Join Pro

Comparision Forecast

View Surf forecast
   
Fri 03/06 11:50am 7ft 7s 5s 27 31 mph 1027.3mb 55f 46f
10:50am 7ft 8s 5s 27 31 mph 1027mb 55f 47f
9:50am 7ft 8s 5s 27 31 mph 1026.7mb 55f 47f
8:50am 7.5ft 6s 5s 25 31 mph 1026.2mb 55f 47f
7:50am 8ft 6s 5s 27 34 mph 1025.7mb 55f 47f
6:50am 6ft 7s 5s 27 34 mph 1025.2mb 55f 47f
5:50am 6ft 6s 5s 25 29 mph 1024.6mb 55f 46f
4:50am 5ft 5s 4s 29 31 mph 1023.7mb 54f 47f
3:50am 3.5ft 4s 4s 25 31 mph 1023.1mb 54f 48f
2:50am 3ft 10s 4s 25 29 mph 1022.7mb 54f 50f
1:50am 2.5ft 10s 4s 20 25 mph 1022.3mb 55f 55f
12:50am 2.5ft 10s 6s 16 20 mph 1021.4mb 55f 56f
Thu 03/05 11:50pm 2.5ft 11s 6s 16 18 mph 1020.6mb 55f 57f
10:50pm 2.5ft 11s 5s 7 9 mph 1020.5mb 56f 60f
9:50pm 2.5ft 11s 5s 2 4 mph 1019.9mb 56f 60f
8:50pm 3ft 11s 5s 2 4 mph 1019.5mb 56f 60f
7:50pm 3ft 11s 5s 4
mph
1018.4mb 56f 60f
6:50pm 3ft 10s 4s 13 16 mph 1016.2mb 56f 60f
5:50pm 3.5ft 11s 4s 13 16 mph 1015.5mb 56f 60f
4:50pm 3.5ft 11s 5s 16 18 mph 1014.8mb 56f 60f
3:50pm 3.5ft 9s 5s 16 18 mph 1015.4mb 56f 61f
2:50pm 3.5ft 10s 5s 13 16 mph 1015.7mb 56f 60f
1:50pm 3ft 10s 5s 16 18 mph 1016.2mb 56f 61f
12:50pm 3ft 10s 5s 13 16 mph 1017.5mb 56f 60f
11:50am 3ft 9s 5s 16 18 mph 1018.2mb 55f 59f
10:50am 3.5ft 10s 5s 16
mph
1018.1mb 55f 59f
9:50am 3.5ft 10s 5s 16 18 mph 1017.7mb 55f 58f
8:50am 3.5ft 6s 5s 13 16 mph 1018.7mb 55f 58f
7:50am 3.5ft 6s 5s 11 13 mph 1018.4mb 54f 58f
6:50am 4ft 6s 5s 9 11 mph 1018mb 54f 57f
5:50am 4ft 6s 5s 9 11 mph 1017.3mb 54f 57f
4:50am 4ft 6s 5s 7 9 mph 1016.7mb 54f 57f
3:50am 4ft 6s 5s 11 13 mph 1016.8mb 54f 58f
2:50am 4ft 6s 5s 11
mph
1017mb 54f 58f
1:50am 3.5ft 5s 5s 11
mph
1017.3mb 53f 58f
12:50am 3.5ft 6s 5s 11 13 mph 1017.4mb 53f 58f
Wed 03/04 11:50pm 3.5ft 6s 4s 16 18 mph 1017.4mb 53f 58f
10:50pm 3.5ft 6s 5s 18 20 mph 1017.6mb 54f 59f
9:50pm 3.5ft 11s 5s 20 22 mph 1017.4mb 54f 60f
8:50pm 3.5ft 11s 5s 18 20 mph 1017.1mb 54f 60f
7:50pm 3.5ft 10s 4s 16 20 mph 1016.6mb 55f 60f
6:50pm 3.5ft 10s 5s 18 20 mph 1016.2mb 55f 61f
5:50pm 3.5ft 9s 4s 16 18 mph 1016.2mb 55f 61f
4:50pm 3ft 9s 5s 18 20 mph 1016.5mb 54f 61f
3:50pm 3ft 8s 5s 16
mph
1017.2mb 54f 60f
2:50pm 3ft 9s 5s 13 16 mph 1017.7mb 54f 59f
1:50pm 2.5ft 8s 5s 11 13 mph 1018.3mb 54f 59f
12:50pm 2.5ft 9s 5s 13
mph
1019.2mb 54f 58f
11:50am 2.5ft 10s 5s 13
mph
1020.3mb 54f 57f
10:50am 2.5ft 9s 5s 11 13 mph 1020.7mb 54f 57f
9:50am  -   -   -  9 11 mph 1021.2mb 55f 56f
8:50am 2.5ft 10s 5s 9 11 mph 1021mb 55f 57f
7:50am 3ft 9s 5s 11 13 mph 1020.6mb 55f 57f
6:50am 3ft 10s 5s 11 13 mph 1020mb 55f 57f
5:50am 3.5ft 8s 5s 11 13 mph 1019.6mb 55f 56f
4:50am 3.5ft 8s 5s 9
mph
1019.4mb 55f 56f
3:50am 3.5ft 8s 5s 7 9 mph 1019mb 54f 55f
2:50am 3.5ft 9s 5s 9 11 mph 1019.1mb 53f 56f
1:50am 3ft 8s 5s 13 16 mph 1019.5mb 54f 59f
12:50am 3ft 9s 6s 16
mph
1019.9mb 54f 59f
Tue 03/03 11:50pm 3ft 8s 6s 13 16 mph 1020.5mb 54f 60f
10:50pm 3ft 10s 6s 11 13 mph 1020.8mb 54f 60f
9:50pm 2.5ft 8s 6s 11
mph
1020.9mb 55f 60f
8:50pm 3ft 8s 6s 9
mph
1020.8mb 55f 60f
7:50pm 3.5ft 9s 6s 7 9 mph 1020.6mb 55f 60f
6:50pm 3ft 9s 6s 7
mph
1020.5mb 56f 59f
5:50pm 3ft 8s 5s 11 13 mph 1020.1mb 56f 57f
4:50pm 2.5ft 8s 6s 7 9 mph 1021.1mb 56f 56f
3:50pm 2.5ft 8s 6s 7
mph
1021.3mb 58f 59f
2:50pm 2.5ft 8s 7s 4
mph
1021.4mb 57f 59f
1:50pm 2.5ft 9s 7s 2 4 mph 1022mb 56f 57f
12:50pm 2.5ft 8s 8s 2 4 mph 1023.3mb 55f 55f
11:50am 2.5ft 9s 8s 7
mph
1024.4mb 53f 55f
10:50am 2.5ft 10s 8s 9 13 mph 1024.7mb 53f 56f
9:50am 2ft 9s 8s 4
mph
1024.6mb 53f 57f
8:50am 2ft 8s 7s 4
mph
1024.6mb 53f 57f
7:50am 2.5ft 10s 8s 2
mph
1023.9mb 54f 57f
6:50am 2.5ft 9s 7s 4 7 mph 1023.5mb 54f 57f
5:50am 2.5ft 9s 7s 4
mph
1023.2mb 54f 57f
4:50am 2.5ft 9s 7s 2 4 mph 1023.2mb 52f 56f
2:50am 2.5ft 9s 7s 4
mph
1022.9mb 52f 55f
1:50am 2.5ft 9s 7s 7 9 mph 1023.1mb 52f 54f
12:50am 2.5ft 9s 7s 2 4 mph 1023.9mb 52f 54f
Mon 03/02 11:50pm 2.5ft 9s 8s 4 7 mph 1024mb 52f 54f
10:50pm 2ft 9s 7s 4 7 mph 1024.4mb 53f 54f
9:50pm 2ft 8s 7s 7
mph
1024.4mb 53f 55f
8:50pm 2.5ft 10s 7s 7 9 mph 1023.8mb 54f 56f
7:50pm 2.5ft 9s 8s 4
mph
1023.5mb 55f 56f
6:50pm 2.5ft 10s 7s 7
mph
1023.3mb 55f 56f